| 基因ID | taxid | GeneDate LocusTag | Symbol Synonyms | Symbolfna Fullnamefna | dbXrefs | chromosome maplocation | description | genetype fnastatus | Otherdesignations | Featuretype |
| 108372810 | 28612 | 20210213 | LOC108372810 | Un | RING finger protein nhl-1-like | protein-coding | ||||
| 108372811 | 28612 | 20210213 | LOC108372811 | Un | synapse-associated protein 1-like | protein-coding | ||||
| 108372812 | 28612 | 20210213 | LOC108372812 | Un | ubiquitin-conjugating enzyme E2 4-like | protein-coding | ||||
| 108372813 | 28612 | 20210213 | LOC108372813 | Un | piggyBac transposable element-derived protein 3-like | protein-coding | ||||
| 108372814 | 28612 | 20210213 | LOC108372814 | Un | uncharacterized protein DDB_G0283697-like | protein-coding | ||||
| 108372815 | 28612 | 20210213 | LOC108372815 | Un | putative serine protease 29 | protein-coding | ||||
| 108372816 | 28612 | 20210213 | LOC108372816 | Un | influenza virus NS1A-binding protein homolog A-like | protein-coding | ||||
| 108372817 | 28612 | 20210213 | LOC108372817 | Un | uncharacterized LOC108372817 | protein-coding | uncharacterized protein LOC108372817 | |||
| 108372818 | 28612 | 20210213 | LOC108372818 | Un | cytochrome c oxidase subunit 4 isoform 1, mitochondrial-like | protein-coding | ||||
| 108372819 | 28612 | 20210424 | LOC108372819 | Un | uncharacterized LOC108372819 | protein-coding | uncharacterized protein LOC108372819 | |||
| 108372820 | 28612 | 20210213 | LOC108372820 | Un | uncharacterized LOC108372820 | protein-coding | uncharacterized protein LOC108372820 | |||
| 108372821 | 28612 | 20210213 | LOC108372821 | Un | PDZ and LIM domain protein Zasp | protein-coding | ||||
| 108372822 | 28612 | 20210213 | LOC108372822 | Un | putative nuclease HARBI1 | pseudo | ||||
| 108372823 | 28612 | 20210213 | LOC108372823 | Un | uncharacterized LOC108372823 | pseudo | ||||
| 108372824 | 28612 | 20210213 | LOC108372824 | Un | kelch-like protein 4 | protein-coding | ||||
| 108372825 | 28612 | 20210213 | LOC108372825 | Un | small G protein signaling modulator 2 | protein-coding | ||||
| 108372826 | 28612 | 20210213 | LOC108372826 | Un | uncharacterized LOC108372826 | protein-coding | uncharacterized protein LOC108372826 | |||
| 108372827 | 28612 | 20210213 | LOC108372827 | Un | uncharacterized LOC108372827 | ncRNA | ||||
| 108372828 | 28612 | 20210213 | LOC108372828 | Un | uncharacterized LOC108372828 | protein-coding | uncharacterized protein LOC108372828 | |||
| 108372829 | 28612 | 20210213 | LOC108372829 | Un | uncharacterized LOC108372829 | protein-coding | uncharacterized protein LOC108372829 | |||
| 108372830 | 28612 | 20210213 | LOC108372830 | Un | uncharacterized LOC108372830 | protein-coding | uncharacterized protein LOC108372830 | |||
| 108372831 | 28612 | 20210213 | LOC108372831 | Un | venom protease-like | protein-coding | ||||
| 108372832 | 28612 | 20210213 | LOC108372832 | Un | endochitinase A-like | protein-coding | ||||
| 108372833 | 28612 | 20210424 | LOC108372833 | Un | adipokinetic hormone | protein-coding | ||||
| 108372834 | 28612 | 20210213 | LOC108372834 | Un | ras-like protein 2 | protein-coding | ||||
| 108372835 | 28612 | 20210213 | LOC108372835 | Un | A disintegrin and metalloproteinase with thrombospondin motifs 7-like | protein-coding | ||||
| 108372836 | 28612 | 20210213 | LOC108372836 | Un | uncharacterized LOC108372836 | protein-coding | uncharacterized protein LOC108372836 | |||
| 108372837 | 28612 | 20210213 | LOC108372837 | Un | myosin ID heavy chain-like | protein-coding | ||||
| 108372838 | 28612 | 20210213 | LOC108372838 | Un | transmembrane protein 120 homolog | protein-coding | ||||
| 108372839 | 28612 | 20210213 | LOC108372839 | Un | uncharacterized LOC108372839 | protein-coding | uncharacterized protein LOC108372839 | |||
| 108372840 | 28612 | 20210213 | LOC108372840 | Un | uncharacterized LOC108372840 | protein-coding | uncharacterized protein LOC108372840 | |||
| 108372841 | 28612 | 20210213 | LOC108372841 | Un | uncharacterized LOC108372841 | protein-coding | uncharacterized protein LOC108372841 | |||
| 108372842 | 28612 | 20210213 | LOC108372842 | Un | DENN domain-containing protein 4C | protein-coding | ||||
| 108372843 | 28612 | 20210213 | LOC108372843 | Un | uncharacterized LOC108372843 | protein-coding | uncharacterized protein LOC108372843 | |||
| 108372844 | 28612 | 20210213 | LOC108372844 | Un | uncharacterized LOC108372844 | protein-coding | uncharacterized protein LOC108372844 | |||
| 108372845 | 28612 | 20210213 | LOC108372845 | Un | zinc finger BED domain-containing protein 1-like | protein-coding | ||||
| 108372846 | 28612 | 20210213 | LOC108372846 | Un | venom serine carboxypeptidase-like | protein-coding | ||||
| 108372847 | 28612 | 20210213 | LOC108372847 | Un | putative nuclease HARBI1 | protein-coding | ||||
| 108372848 | 28612 | 20210213 | LOC108372848 | Un | putative nuclease HARBI1 | protein-coding | ||||
| 108372849 | 28612 | 20210213 | LOC108372849 | Un | frequenin-1-like | protein-coding | ||||
| 108372850 | 28612 | 20210213 | LOC108372850 | Un | protein hairy-like | protein-coding | ||||
| 108372851 | 28612 | 20210213 | LOC108372851 | Un | uncharacterized LOC108372851 | ncRNA | ||||
| 108372852 | 28612 | 20210213 | LOC108372852 | Un | dnaJ protein homolog 1-like | protein-coding | ||||
| 108372853 | 28612 | 20210213 | LOC108372853 | Un | uncharacterized LOC108372853 | protein-coding | uncharacterized protein LOC108372853 | |||
| 108372854 | 28612 | 20210424 | LOC108372854 | Un | mitochondrial pyruvate carrier 1-like | protein-coding | ||||
| 108372855 | 28612 | 20210213 | LOC108372855 | Un | uncharacterized LOC108372855 | protein-coding | uncharacterized protein LOC108372855 | |||
| 108372856 | 28612 | 20210213 | LOC108372856 | Un | uncharacterized LOC108372856 | protein-coding | uncharacterized protein LOC108372856 | |||
| 108372857 | 28612 | 20210213 | LOC108372857 | Un | bifunctional endo-1,4-beta-xylanase XylA | protein-coding | ||||
| 108372858 | 28612 | 20210213 | LOC108372858 | Un | arf-GAP with dual PH domain-containing protein 1-like | protein-coding | ||||
| 108372859 | 28612 | 20210213 | LOC108372859 | Un | stromal interaction molecule homolog | protein-coding | stromal interaction molecule 1|stromal interaction molecule homolog |
| 维奥蛋白资源库 - 中文蛋白资源 CopyRight © 2010-2026 |